sensor_id;sensor_type;location;lat;lon;timestamp;pressure;altitude;pressure_sealevel;temperature;humidity
22755;BME280;11544;42.020;23.094;2023-12-28T00:02:14;98392.56;;;4.03;100.00
22755;BME280;11544;42.020;23.094;2023-12-28T00:04:41;98391.81;;;4.15;100.00
22755;BME280;11544;42.020;23.094;2023-12-28T00:07:08;98392.91;;;4.46;100.00
22755;BME280;11544;42.020;23.094;2023-12-28T00:09:34;98403.00;;;4.17;100.00
22755;BME280;11544;42.020;23.094;2023-12-28T00:12:02;98413.97;;;3.94;100.00
22755;BME280;11544;42.020;23.094;2023-12-28T00:14:29;98411.34;;;3.88;100.00
22755;BME280;11544;42.020;23.094;2023-12-28T00:16:56;98418.44;;;4.09;100.00
22755;BME280;11544;42.020;23.094;2023-12-28T00:19:22;98422.72;;;4.07;100.00
22755;BME280;11544;42.020;23.094;2023-12-28T00:21:49;98424.25;;;3.91;100.00
22755;BME280;11544;42.020;23.094;2023-12-28T00:24:19;98432.28;;;4.19;100.00
22755;BME280;11544;42.020;23.094;2023-12-28T00:26:47;98425.63;;;4.45;100.00
22755;BME280;11544;42.020;23.094;2023-12-28T00:29:14;98433.59;;;4.73;100.00
22755;BME280;11544;42.020;23.094;2023-12-28T00:31:40;98429.56;;;5.18;100.00
22755;BME280;11544;42.020;23.094;2023-12-28T00:34:08;98423.88;;;4.41;100.00
22755;BME280;11544;42.020;23.094;2023-12-28T00:36:35;98439.06;;;4.11;100.00
22755;BME280;11544;42.020;23.094;2023-12-28T00:39:02;98452.63;;;3.88;100.00
22755;BME280;11544;42.020;23.094;2023-12-28T00:41:29;98452.22;;;4.37;100.00
22755;BME280;11544;42.020;23.094;2023-12-28T00:43:56;98445.59;;;4.66;100.00
22755;BME280;11544;42.020;23.094;2023-12-28T00:46:22;98447.25;;;4.57;100.00
22755;BME280;11544;42.020;23.094;2023-12-28T00:48:49;98471.63;;;3.95;100.00
22755;BME280;11544;42.020;23.094;2023-12-28T00:51:17;98467.84;;;3.68;100.00
22755;BME280;11544;42.020;23.094;2023-12-28T00:53:43;98468.31;;;4.10;100.00
22755;BME280;11544;42.020;23.094;2023-12-28T00:56:10;98463.09;;;4.02;100.00
22755;BME280;11544;42.020;23.094;2023-12-28T00:58:40;98467.91;;;3.71;100.00
22755;BME280;11544;42.020;23.094;2023-12-28T01:01:09;98470.53;;;3.77;100.00
22755;BME280;11544;42.020;23.094;2023-12-28T01:03:36;98475.63;;;3.73;100.00
22755;BME280;11544;42.020;23.094;2023-12-28T01:06:07;98468.16;;;3.94;100.00
22755;BME280;11544;42.020;23.094;2023-12-28T01:08:34;98475.59;;;3.67;100.00
22755;BME280;11544;42.020;23.094;2023-12-28T01:11:01;98478.75;;;3.47;100.00
22755;BME280;11544;42.020;23.094;2023-12-28T01:13:29;98477.09;;;3.51;100.00
22755;BME280;11544;42.020;23.094;2023-12-28T01:15:57;98480.81;;;3.74;100.00
22755;BME280;11544;42.020;23.094;2023-12-28T01:18:24;98482.25;;;3.51;100.00
22755;BME280;11544;42.020;23.094;2023-12-28T01:20:51;98479.72;;;3.54;100.00
22755;BME280;11544;42.020;23.094;2023-12-28T01:23:18;98486.47;;;3.44;100.00
22755;BME280;11544;42.020;23.094;2023-12-28T01:25:45;98482.19;;;3.46;100.00
22755;BME280;11544;42.020;23.094;2023-12-28T01:28:12;98479.56;;;3.42;100.00
22755;BME280;11544;42.020;23.094;2023-12-28T01:30:39;98483.75;;;3.35;100.00
22755;BME280;11544;42.020;23.094;2023-12-28T01:33:06;98472.19;;;3.72;100.00
22755;BME280;11544;42.020;23.094;2023-12-28T01:35:33;98472.28;;;3.80;100.00
22755;BME280;11544;42.020;23.094;2023-12-28T01:38:00;98479.88;;;3.68;100.00
22755;BME280;11544;42.020;23.094;2023-12-28T01:40:28;98477.53;;;3.86;100.00
22755;BME280;11544;42.020;23.094;2023-12-28T01:42:55;98480.78;;;3.73;100.00
22755;BME280;11544;42.020;23.094;2023-12-28T01:45:22;98476.16;;;3.44;100.00
22755;BME280;11544;42.020;23.094;2023-12-28T01:47:50;98481.00;;;3.23;100.00
22755;BME280;11544;42.020;23.094;2023-12-28T01:50:20;98482.00;;;3.32;100.00
22755;BME280;11544;42.020;23.094;2023-12-28T01:52:47;98476.22;;;3.49;100.00
22755;BME280;11544;42.020;23.094;2023-12-28T01:55:14;98480.22;;;3.27;100.00
22755;BME280;11544;42.020;23.094;2023-12-28T01:57:42;98477.53;;;3.21;100.00
22755;BME280;11544;42.020;23.094;2023-12-28T02:00:10;98481.03;;;3.26;100.00
22755;BME280;11544;42.020;23.094;2023-12-28T02:02:37;98475.59;;;3.03;100.00
22755;BME280;11544;42.020;23.094;2023-12-28T02:05:04;98480.13;;;3.21;100.00
22755;BME280;11544;42.020;23.094;2023-12-28T02:07:32;98473.28;;;3.23;100.00
22755;BME280;11544;42.020;23.094;2023-12-28T02:09:59;98469.22;;;3.38;100.00
22755;BME280;11544;42.020;23.094;2023-12-28T02:12:26;98474.91;;;3.16;100.00
22755;BME280;11544;42.020;23.094;2023-12-28T02:14:53;98480.06;;;3.14;100.00
22755;BME280;11544;42.020;23.094;2023-12-28T02:17:23;98476.34;;;2.97;100.00
22755;BME280;11544;42.020;23.094;2023-12-28T02:19:55;98474.38;;;3.38;100.00
22755;BME280;11544;42.020;23.094;2023-12-28T02:22:25;98475.09;;;3.30;100.00
22755;BME280;11544;42.020;23.094;2023-12-28T02:25:05;98471.09;;;3.50;100.00
22755;BME280;11544;42.020;23.094;2023-12-28T02:27:45;98473.97;;;3.78;100.00
22755;BME280;11544;42.020;23.094;2023-12-28T02:30:18;98465.91;;;3.52;100.00
22755;BME280;11544;42.020;23.094;2023-12-28T02:33:12;98470.25;;;3.53;100.00
22755;BME280;11544;42.020;23.094;2023-12-28T02:35:47;98466.81;;;3.54;100.00
22755;BME280;11544;42.020;23.094;2023-12-28T02:38:18;98465.28;;;3.67;100.00
22755;BME280;11544;42.020;23.094;2023-12-28T02:40:47;98470.25;;;3.53;100.00
22755;BME280;11544;42.020;23.094;2023-12-28T02:43:14;98463.25;;;3.43;100.00
22755;BME280;11544;42.020;23.094;2023-12-28T02:45:41;98463.63;;;3.08;100.00
22755;BME280;11544;42.020;23.094;2023-12-28T02:48:08;98470.47;;;3.06;100.00
22755;BME280;11544;42.020;23.094;2023-12-28T02:50:36;98461.44;;;3.35;100.00
22755;BME280;11544;42.020;23.094;2023-12-28T02:53:03;98469.44;;;2.94;100.00
22755;BME280;11544;42.020;23.094;2023-12-28T02:55:30;98475.75;;;3.15;100.00
22755;BME280;11544;42.020;23.094;2023-12-28T02:57:57;98468.84;;;2.56;100.00
22755;BME280;11544;42.020;23.094;2023-12-28T03:00:28;98475.56;;;2.48;100.00
22755;BME280;11544;42.020;23.094;2023-12-28T03:02:56;98473.88;;;2.48;100.00
22755;BME280;11544;42.020;23.094;2023-12-28T03:05:23;98483.31;;;2.49;100.00
22755;BME280;11544;42.020;23.094;2023-12-28T03:07:50;98478.78;;;2.86;100.00
22755;BME280;11544;42.020;23.094;2023-12-28T03:10:17;98467.72;;;2.95;100.00
22755;BME280;11544;42.020;23.094;2023-12-28T03:12:44;98474.31;;;3.34;100.00
22755;BME280;11544;42.020;23.094;2023-12-28T03:15:11;98468.28;;;3.35;100.00
22755;BME280;11544;42.020;23.094;2023-12-28T03:17:38;98462.22;;;2.70;100.00
22755;BME280;11544;42.020;23.094;2023-12-28T03:20:05;98467.91;;;2.51;100.00
22755;BME280;11544;42.020;23.094;2023-12-28T03:22:33;98479.84;;;2.46;100.00
22755;BME280;11544;42.020;23.094;2023-12-28T03:25:00;98472.88;;;2.95;100.00
22755;BME280;11544;42.020;23.094;2023-12-28T03:27:27;98468.72;;;3.05;100.00
22755;BME280;11544;42.020;23.094;2023-12-28T03:29:54;98467.94;;;3.09;100.00
22755;BME280;11544;42.020;23.094;2023-12-28T03:32:20;98469.69;;;3.10;100.00
22755;BME280;11544;42.020;23.094;2023-12-28T03:34:48;98469.84;;;3.22;100.00
22755;BME280;11544;42.020;23.094;2023-12-28T03:37:14;98463.66;;;2.54;100.00
22755;BME280;11544;42.020;23.094;2023-12-28T03:39:41;98465.88;;;2.85;100.00
22755;BME280;11544;42.020;23.094;2023-12-28T03:42:09;98456.91;;;3.17;100.00
22755;BME280;11544;42.020;23.094;2023-12-28T03:44:36;98463.66;;;3.78;100.00
22755;BME280;11544;42.020;23.094;2023-12-28T03:47:03;98468.44;;;3.46;100.00
22755;BME280;11544;42.020;23.094;2023-12-28T03:49:30;98453.88;;;3.51;100.00
22755;BME280;11544;42.020;23.094;2023-12-28T03:51:57;98462.19;;;3.28;100.00
22755;BME280;11544;42.020;23.094;2023-12-28T03:54:24;98455.81;;;3.00;100.00
22755;BME280;11544;42.020;23.094;2023-12-28T03:56:51;98464.03;;;3.35;100.00
22755;BME280;11544;42.020;23.094;2023-12-28T03:59:18;98457.66;;;3.76;100.00
22755;BME280;11544;42.020;23.094;2023-12-28T04:01:45;98460.69;;;2.82;100.00
22755;BME280;11544;42.020;23.094;2023-12-28T04:04:12;98457.41;;;3.57;100.00
22755;BME280;11544;42.020;23.094;2023-12-28T04:06:39;98456.53;;;3.55;100.00
22755;BME280;11544;42.020;23.094;2023-12-28T04:09:11;98455.56;;;3.47;100.00
22755;BME280;11544;42.020;23.094;2023-12-28T04:11:38;98461.06;;;3.09;100.00
22755;BME280;11544;42.020;23.094;2023-12-28T04:14:05;98463.78;;;3.18;100.00
22755;BME280;11544;42.020;23.094;2023-12-28T04:16:32;98461.28;;;3.25;100.00
22755;BME280;11544;42.020;23.094;2023-12-28T04:18:59;98466.47;;;3.26;100.00
22755;BME280;11544;42.020;23.094;2023-12-28T04:21:26;98465.16;;;2.93;100.00
22755;BME280;11544;42.020;23.094;2023-12-28T04:23:52;98471.41;;;3.11;100.00
22755;BME280;11544;42.020;23.094;2023-12-28T04:26:19;98462.78;;;3.07;100.00
22755;BME280;11544;42.020;23.094;2023-12-28T04:28:49;98471.16;;;2.41;100.00
22755;BME280;11544;42.020;23.094;2023-12-28T04:31:16;98472.84;;;2.39;100.00
22755;BME280;11544;42.020;23.094;2023-12-28T04:33:43;98474.69;;;2.46;100.00
22755;BME280;11544;42.020;23.094;2023-12-28T04:36:10;98475.97;;;2.21;100.00
22755;BME280;11544;42.020;23.094;2023-12-28T04:38:37;98475.72;;;2.57;100.00
22755;BME280;11544;42.020;23.094;2023-12-28T04:41:05;98473.06;;;2.52;100.00
22755;BME280;11544;42.020;23.094;2023-12-28T04:43:32;98470.19;;;2.87;100.00
22755;BME280;11544;42.020;23.094;2023-12-28T04:46:03;98479.84;;;2.47;100.00
22755;BME280;11544;42.020;23.094;2023-12-28T04:48:31;98476.13;;;2.30;100.00
22755;BME280;11544;42.020;23.094;2023-12-28T04:51:02;98477.38;;;2.03;100.00
22755;BME280;11544;42.020;23.094;2023-12-28T04:53:29;98468.13;;;2.13;100.00
22755;BME280;11544;42.020;23.094;2023-12-28T04:55:56;98475.34;;;1.87;100.00
22755;BME280;11544;42.020;23.094;2023-12-28T04:58:22;98476.44;;;2.00;100.00
22755;BME280;11544;42.020;23.094;2023-12-28T05:00:49;98469.63;;;2.50;100.00
22755;BME280;11544;42.020;23.094;2023-12-28T05:03:16;98476.13;;;5.23;100.00
22755;BME280;11544;42.020;23.094;2023-12-28T05:05:43;98467.97;;;6.42;100.00
22755;BME280;11544;42.020;23.094;2023-12-28T05:08:11;98474.88;;;3.13;100.00
22755;BME280;11544;42.020;23.094;2023-12-28T05:10:37;98475.84;;;2.13;100.00
22755;BME280;11544;42.020;23.094;2023-12-28T05:13:04;98482.25;;;1.91;100.00
22755;BME280;11544;42.020;23.094;2023-12-28T05:15:31;98475.44;;;1.92;100.00
22755;BME280;11544;42.020;23.094;2023-12-28T05:17:58;98483.03;;;1.85;100.00
22755;BME280;11544;42.020;23.094;2023-12-28T05:20:25;98489.34;;;2.03;100.00
22755;BME280;11544;42.020;23.094;2023-12-28T05:22:52;98481.56;;;2.47;100.00
22755;BME280;11544;42.020;23.094;2023-12-28T05:25:18;98473.97;;;2.53;100.00
22755;BME280;11544;42.020;23.094;2023-12-28T05:27:45;98479.38;;;2.20;100.00
22755;BME280;11544;42.020;23.094;2023-12-28T05:30:12;98484.72;;;1.85;100.00
22755;BME280;11544;42.020;23.094;2023-12-28T05:32:40;98489.22;;;1.95;100.00
22755;BME280;11544;42.020;23.094;2023-12-28T05:35:07;98491.72;;;1.94;100.00
22755;BME280;11544;42.020;23.094;2023-12-28T05:37:34;98495.56;;;2.14;100.00
22755;BME280;11544;42.020;23.094;2023-12-28T05:40:01;98496.88;;;1.92;100.00
22755;BME280;11544;42.020;23.094;2023-12-28T05:42:28;98503.72;;;1.92;100.00
22755;BME280;11544;42.020;23.094;2023-12-28T05:44:55;98499.31;;;1.86;100.00
22755;BME280;11544;42.020;23.094;2023-12-28T05:47:22;98512.06;;;2.25;100.00
22755;BME280;11544;42.020;23.094;2023-12-28T05:49:50;98509.78;;;2.42;100.00
22755;BME280;11544;42.020;23.094;2023-12-28T05:52:18;98505.00;;;2.14;100.00
22755;BME280;11544;42.020;23.094;2023-12-28T05:54:46;98510.22;;;2.18;100.00
22755;BME280;11544;42.020;23.094;2023-12-28T05:57:15;98507.56;;;2.14;100.00
22755;BME280;11544;42.020;23.094;2023-12-28T05:59:42;98510.09;;;2.10;100.00
22755;BME280;11544;42.020;23.094;2023-12-28T06:02:09;98516.19;;;2.16;100.00
22755;BME280;11544;42.020;23.094;2023-12-28T06:04:36;98521.41;;;2.20;100.00
22755;BME280;11544;42.020;23.094;2023-12-28T06:07:04;98518.69;;;2.12;100.00
22755;BME280;11544;42.020;23.094;2023-12-28T06:09:31;98515.88;;;2.00;100.00
22755;BME280;11544;42.020;23.094;2023-12-28T06:11:59;98524.03;;;2.72;100.00
22755;BME280;11544;42.020;23.094;2023-12-28T06:14:26;98522.53;;;2.35;100.00
22755;BME280;11544;42.020;23.094;2023-12-28T06:16:52;98530.59;;;2.06;100.00
22755;BME280;11544;42.020;23.094;2023-12-28T06:19:20;98530.84;;;2.21;100.00
22755;BME280;11544;42.020;23.094;2023-12-28T06:21:47;98532.25;;;2.05;100.00
22755;BME280;11544;42.020;23.094;2023-12-28T06:24:14;98532.44;;;2.13;100.00
22755;BME280;11544;42.020;23.094;2023-12-28T06:26:44;98532.88;;;1.92;100.00
22755;BME280;11544;42.020;23.094;2023-12-28T06:29:11;98537.94;;;1.89;100.00
22755;BME280;11544;42.020;23.094;2023-12-28T06:31:38;98536.44;;;1.99;100.00
22755;BME280;11544;42.020;23.094;2023-12-28T06:34:07;98537.25;;;1.98;100.00
22755;BME280;11544;42.020;23.094;2023-12-28T06:36:34;98540.09;;;2.11;100.00
22755;BME280;11544;42.020;23.094;2023-12-28T06:39:01;98537.50;;;2.10;100.00
22755;BME280;11544;42.020;23.094;2023-12-28T06:41:28;98532.03;;;1.92;100.00
22755;BME280;11544;42.020;23.094;2023-12-28T06:43:55;98533.56;;;1.83;100.00
22755;BME280;11544;42.020;23.094;2023-12-28T06:46:22;98533.16;;;2.07;100.00
22755;BME280;11544;42.020;23.094;2023-12-28T06:48:49;98536.34;;;1.96;100.00
22755;BME280;11544;42.020;23.094;2023-12-28T06:51:20;98542.41;;;1.96;100.00
22755;BME280;11544;42.020;23.094;2023-12-28T06:53:48;98544.97;;;1.96;100.00
22755;BME280;11544;42.020;23.094;2023-12-28T06:56:16;98538.72;;;1.85;100.00
22755;BME280;11544;42.020;23.094;2023-12-28T06:58:43;98543.44;;;1.63;100.00
22755;BME280;11544;42.020;23.094;2023-12-28T07:01:10;98549.81;;;2.26;100.00
22755;BME280;11544;42.020;23.094;2023-12-28T07:03:39;98544.03;;;2.38;100.00
22755;BME280;11544;42.020;23.094;2023-12-28T07:06:07;98535.78;;;3.08;100.00
22755;BME280;11544;42.020;23.094;2023-12-28T07:08:35;98538.81;;;2.33;100.00
22755;BME280;11544;42.020;23.094;2023-12-28T07:11:03;98543.00;;;2.27;100.00
22755;BME280;11544;42.020;23.094;2023-12-28T07:13:32;98538.97;;;1.97;100.00
22755;BME280;11544;42.020;23.094;2023-12-28T07:16:01;98548.31;;;1.94;100.00
22755;BME280;11544;42.020;23.094;2023-12-28T07:18:36;98550.44;;;2.15;100.00
22755;BME280;11544;42.020;23.094;2023-12-28T07:21:03;98547.28;;;2.28;100.00
22755;BME280;11544;42.020;23.094;2023-12-28T07:23:30;98540.47;;;2.31;100.00
22755;BME280;11544;42.020;23.094;2023-12-28T07:25:57;98540.25;;;2.65;100.00
22755;BME280;11544;42.020;23.094;2023-12-28T07:28:24;98546.81;;;2.49;100.00
22755;BME280;11544;42.020;23.094;2023-12-28T07:30:51;98538.72;;;2.27;100.00
22755;BME280;11544;42.020;23.094;2023-12-28T07:33:18;98547.78;;;2.08;100.00
22755;BME280;11544;42.020;23.094;2023-12-28T07:35:46;98540.16;;;2.60;100.00
22755;BME280;11544;42.020;23.094;2023-12-28T07:38:13;98533.38;;;3.20;100.00
22755;BME280;11544;42.020;23.094;2023-12-28T07:40:40;98547.59;;;2.93;100.00
22755;BME280;11544;42.020;23.094;2023-12-28T07:43:07;98537.03;;;2.29;100.00
22755;BME280;11544;42.020;23.094;2023-12-28T07:45:35;98540.59;;;2.88;100.00
22755;BME280;11544;42.020;23.094;2023-12-28T07:48:09;98546.91;;;3.05;100.00
22755;BME280;11544;42.020;23.094;2023-12-28T07:50:37;98541.34;;;3.37;100.00
22755;BME280;11544;42.020;23.094;2023-12-28T07:53:06;98543.31;;;2.44;100.00
22755;BME280;11544;42.020;23.094;2023-12-28T07:55:33;98548.88;;;2.21;100.00
22755;BME280;11544;42.020;23.094;2023-12-28T07:58:00;98554.59;;;2.52;100.00
22755;BME280;11544;42.020;23.094;2023-12-28T08:00:27;98548.28;;;2.35;100.00
22755;BME280;11544;42.020;23.094;2023-12-28T08:02:54;98542.69;;;3.73;100.00
22755;BME280;11544;42.020;23.094;2023-12-28T08:05:31;98539.47;;;2.70;100.00
22755;BME280;11544;42.020;23.094;2023-12-28T08:07:58;98544.13;;;2.43;100.00
22755;BME280;11544;42.020;23.094;2023-12-28T08:10:25;98536.00;;;2.68;100.00
22755;BME280;11544;42.020;23.094;2023-12-28T08:12:52;98537.78;;;2.72;100.00
22755;BME280;11544;42.020;23.094;2023-12-28T08:15:19;98543.28;;;3.52;100.00
22755;BME280;11544;42.020;23.094;2023-12-28T08:17:46;98530.63;;;3.08;100.00
22755;BME280;11544;42.020;23.094;2023-12-28T08:20:13;98538.56;;;2.68;100.00
22755;BME280;11544;42.020;23.094;2023-12-28T08:22:40;98540.81;;;2.50;100.00
22755;BME280;11544;42.020;23.094;2023-12-28T08:25:08;98529.16;;;2.70;100.00
22755;BME280;11544;42.020;23.094;2023-12-28T08:27:35;98536.19;;;2.81;100.00
22755;BME280;11544;42.020;23.094;2023-12-28T08:30:03;98532.25;;;3.62;100.00
22755;BME280;11544;42.020;23.094;2023-12-28T08:32:30;98522.91;;;3.09;100.00
22755;BME280;11544;42.020;23.094;2023-12-28T08:34:57;98529.84;;;3.12;100.00
22755;BME280;11544;42.020;23.094;2023-12-28T08:37:25;98523.50;;;3.51;100.00
22755;BME280;11544;42.020;23.094;2023-12-28T08:39:52;98520.13;;;3.56;100.00
22755;BME280;11544;42.020;23.094;2023-12-28T08:42:21;98510.94;;;3.77;100.00
22755;BME280;11544;42.020;23.094;2023-12-28T08:44:51;98516.63;;;3.51;100.00
22755;BME280;11544;42.020;23.094;2023-12-28T08:47:18;98504.72;;;3.61;100.00
22755;BME280;11544;42.020;23.094;2023-12-28T08:49:45;98501.88;;;3.38;100.00
22755;BME280;11544;42.020;23.094;2023-12-28T08:52:12;98496.16;;;3.01;100.00
22755;BME280;11544;42.020;23.094;2023-12-28T08:54:40;98494.06;;;4.02;100.00
22755;BME280;11544;42.020;23.094;2023-12-28T08:57:07;98486.50;;;4.22;100.00
22755;BME280;11544;42.020;23.094;2023-12-28T08:59:39;98483.97;;;4.27;100.00
22755;BME280;11544;42.020;23.094;2023-12-28T09:02:06;98480.50;;;4.23;100.00
22755;BME280;11544;42.020;23.094;2023-12-28T09:04:34;98481.00;;;3.88;100.00
22755;BME280;11544;42.020;23.094;2023-12-28T09:07:01;98467.31;;;4.93;100.00
22755;BME280;11544;42.020;23.094;2023-12-28T09:12:05;98469.00;;;3.93;100.00
22755;BME280;11544;42.020;23.094;2023-12-28T09:14:32;98458.22;;;4.34;100.00
22755;BME280;11544;42.020;23.094;2023-12-28T09:16:58;98455.25;;;4.91;100.00
22755;BME280;11544;42.020;23.094;2023-12-28T09:19:25;98447.50;;;4.94;100.00
22755;BME280;11544;42.020;23.094;2023-12-28T09:21:52;98442.59;;;5.37;100.00
22755;BME280;11544;42.020;23.094;2023-12-28T09:24:19;98441.72;;;5.32;100.00
22755;BME280;11544;42.020;23.094;2023-12-28T09:26:46;98430.81;;;6.40;100.00
22755;BME280;11544;42.020;23.094;2023-12-28T09:29:13;98420.47;;;6.28;100.00
22755;BME280;11544;42.020;23.094;2023-12-28T09:31:40;98409.19;;;7.01;100.00
22755;BME280;11544;42.020;23.094;2023-12-28T09:34:11;98410.94;;;6.02;100.00
22755;BME280;11544;42.020;23.094;2023-12-28T09:36:39;98406.50;;;5.69;100.00
22755;BME280;11544;42.020;23.094;2023-12-28T09:39:06;98396.19;;;5.78;100.00
22755;BME280;11544;42.020;23.094;2023-12-28T09:41:36;98392.81;;;6.11;100.00
22755;BME280;11544;42.020;23.094;2023-12-28T09:44:12;98391.88;;;5.74;100.00
22755;BME280;11544;42.020;23.094;2023-12-28T09:46:43;98383.28;;;5.84;100.00
22755;BME280;11544;42.020;23.094;2023-12-28T09:49:12;98375.56;;;6.23;100.00
22755;BME280;11544;42.020;23.094;2023-12-28T09:51:39;98372.97;;;6.18;100.00
22755;BME280;11544;42.020;23.094;2023-12-28T09:54:06;98377.19;;;5.71;100.00
22755;BME280;11544;42.020;23.094;2023-12-28T09:56:33;98363.44;;;6.91;100.00
22755;BME280;11544;42.020;23.094;2023-12-28T09:59:11;98356.56;;;6.38;100.00
22755;BME280;11544;42.020;23.094;2023-12-28T10:01:50;98348.81;;;6.33;100.00
22755;BME280;11544;42.020;23.094;2023-12-28T10:04:21;98337.56;;;6.40;100.00
22755;BME280;11544;42.020;23.094;2023-12-28T10:06:48;98333.22;;;6.76;100.00
22755;BME280;11544;42.020;23.094;2023-12-28T10:09:37;98332.44;;;6.26;100.00
22755;BME280;11544;42.020;23.094;2023-12-28T10:12:07;98324.66;;;6.02;100.00
22755;BME280;11544;42.020;23.094;2023-12-28T10:14:35;98324.63;;;6.52;100.00
22755;BME280;11544;42.020;23.094;2023-12-28T10:17:02;98308.16;;;6.81;100.00
22755;BME280;11544;42.020;23.094;2023-12-28T10:19:38;98310.75;;;6.78;100.00
22755;BME280;11544;42.020;23.094;2023-12-28T10:22:06;98293.47;;;8.22;100.00
22755;BME280;11544;42.020;23.094;2023-12-28T10:25:11;98288.03;;;7.40;100.00
22755;BME280;11544;42.020;23.094;2023-12-28T10:31:10;98283.03;;;6.98;100.00
22755;BME280;11544;42.020;23.094;2023-12-28T10:33:39;98272.50;;;7.31;100.00
22755;BME280;11544;42.020;23.094;2023-12-28T10:36:16;98264.75;;;7.28;100.00
22755;BME280;11544;42.020;23.094;2023-12-28T10:39:11;98252.88;;;8.12;100.00
22755;BME280;11544;42.020;23.094;2023-12-28T10:42:04;98249.16;;;7.31;100.00
22755;BME280;11544;42.020;23.094;2023-12-28T10:44:38;98238.72;;;7.41;100.00
22755;BME280;11544;42.020;23.094;2023-12-28T10:47:15;98230.75;;;7.68;100.00
22755;BME280;11544;42.020;23.094;2023-12-28T10:50:02;98227.03;;;8.01;100.00
22755;BME280;11544;42.020;23.094;2023-12-28T10:52:45;98219.16;;;8.09;100.00
22755;BME280;11544;42.020;23.094;2023-12-28T10:55:40;98219.50;;;7.70;100.00
22755;BME280;11544;42.020;23.094;2023-12-28T10:58:45;98204.47;;;8.85;100.00
22755;BME280;11544;42.020;23.094;2023-12-28T11:01:22;98203.53;;;8.13;100.00
22755;BME280;11544;42.020;23.094;2023-12-28T11:06:48;98193.56;;;8.58;100.00
22755;BME280;11544;42.020;23.094;2023-12-28T11:09:26;98194.63;;;8.36;100.00
22755;BME280;11544;42.020;23.094;2023-12-28T11:12:06;98176.72;;;8.85;100.00
22755;BME280;11544;42.020;23.094;2023-12-28T11:14:57;98177.69;;;8.80;100.00
22755;BME280;11544;42.020;23.094;2023-12-28T11:17:41;98171.69;;;8.73;100.00
22755;BME280;11544;42.020;23.094;2023-12-28T11:20:32;98163.06;;;8.71;100.00
22755;BME280;11544;42.020;23.094;2023-12-28T11:23:00;98161.34;;;9.33;100.00
22755;BME280;11544;42.020;23.094;2023-12-28T11:25:33;98156.53;;;9.06;100.00
22755;BME280;11544;42.020;23.094;2023-12-28T11:28:18;98151.38;;;9.59;100.00
22755;BME280;11544;42.020;23.094;2023-12-28T11:30:49;98144.16;;;9.76;100.00
22755;BME280;11544;42.020;23.094;2023-12-28T11:33:17;98146.97;;;9.64;100.00
22755;BME280;11544;42.020;23.094;2023-12-28T11:35:47;98135.66;;;9.10;100.00
22755;BME280;11544;42.020;23.094;2023-12-28T11:38:15;98140.78;;;9.69;100.00
22755;BME280;11544;42.020;23.094;2023-12-28T11:40:46;98122.25;;;9.37;100.00
22755;BME280;11544;42.020;23.094;2023-12-28T11:43:20;98112.50;;;8.94;100.00
22755;BME280;11544;42.020;23.094;2023-12-28T11:45:50;98099.41;;;10.01;100.00
22755;BME280;11544;42.020;23.094;2023-12-28T11:48:37;98092.59;;;9.95;100.00
22755;BME280;11544;42.020;23.094;2023-12-28T11:51:39;98086.44;;;10.44;98.47
22755;BME280;11544;42.020;23.094;2023-12-28T11:54:15;98085.38;;;10.53;95.24
22755;BME280;11544;42.020;23.094;2023-12-28T11:56:44;98085.41;;;10.92;93.85
22755;BME280;11544;42.020;23.094;2023-12-28T11:59:17;98069.44;;;10.67;93.99
22755;BME280;11544;42.020;23.094;2023-12-28T12:01:59;98066.00;;;10.65;95.96
22755;BME280;11544;42.020;23.094;2023-12-28T12:04:59;98080.94;;;10.97;97.32
22755;BME280;11544;42.020;23.094;2023-12-28T12:07:29;98068.31;;;10.38;96.21
22755;BME280;11544;42.020;23.094;2023-12-28T12:09:57;98059.41;;;10.87;94.73
22755;BME280;11544;42.020;23.094;2023-12-28T12:12:26;98056.56;;;10.59;95.57
22755;BME280;11544;42.020;23.094;2023-12-28T12:14:54;98047.41;;;10.80;93.23
22755;BME280;11544;42.020;23.094;2023-12-28T12:17:22;98051.53;;;10.51;92.96
22755;BME280;11544;42.020;23.094;2023-12-28T12:19:49;98042.06;;;10.47;94.01
22755;BME280;11544;42.020;23.094;2023-12-28T12:22:18;98039.91;;;10.66;93.36
22755;BME280;11544;42.020;23.094;2023-12-28T12:24:51;98041.50;;;11.09;90.08
22755;BME280;11544;42.020;23.094;2023-12-28T12:27:21;98033.44;;;11.18;90.31
22755;BME280;11544;42.020;23.094;2023-12-28T12:29:49;98030.38;;;11.37;88.84
22755;BME280;11544;42.020;23.094;2023-12-28T12:32:16;98024.03;;;11.45;86.95
22755;BME280;11544;42.020;23.094;2023-12-28T12:34:44;98026.34;;;11.58;86.99
22755;BME280;11544;42.020;23.094;2023-12-28T12:37:11;98021.13;;;11.23;87.08
22755;BME280;11544;42.020;23.094;2023-12-28T12:39:38;98023.66;;;11.27;87.07
22755;BME280;11544;42.020;23.094;2023-12-28T12:42:05;98019.25;;;11.63;85.09
22755;BME280;11544;42.020;23.094;2023-12-28T12:44:34;98022.06;;;11.55;84.79
22755;BME280;11544;42.020;23.094;2023-12-28T12:47:01;98014.66;;;11.71;85.57
22755;BME280;11544;42.020;23.094;2023-12-28T12:49:29;98020.34;;;11.54;85.30
22755;BME280;11544;42.020;23.094;2023-12-28T12:51:56;98014.66;;;11.71;85.36
22755;BME280;11544;42.020;23.094;2023-12-28T12:54:26;98003.94;;;11.82;82.87
22755;BME280;11544;42.020;23.094;2023-12-28T12:56:55;98004.78;;;12.14;82.16
22755;BME280;11544;42.020;23.094;2023-12-28T12:59:23;98006.47;;;12.16;80.65
22755;BME280;11544;42.020;23.094;2023-12-28T13:01:52;97998.88;;;11.76;84.87
22755;BME280;11544;42.020;23.094;2023-12-28T13:04:20;97997.22;;;12.04;82.90
22755;BME280;11544;42.020;23.094;2023-12-28T13:06:48;97993.81;;;12.02;83.82
22755;BME280;11544;42.020;23.094;2023-12-28T13:09:16;97990.47;;;12.27;81.72
22755;BME280;11544;42.020;23.094;2023-12-28T13:11:43;97989.09;;;12.14;83.38